Time,TemperatureF,DewpointF,PressureIn,WindDirection,WindDirectionDegrees,WindSpeedMPH,WindSpeedGustMPH,Humidity,HourlyPrecipIn,Conditions,Clouds,dailyrainin,SoftwareType,DateUTC
2013-07-27 00:02:00,61.0,38.0,-100.00,SW,228,3.0,4.0,43,-99.99,,,-99.99,,2013-07-27 06:02:00,
2013-07-27 00:22:00,59.0,39.0,-100.00,SW,230,3.0,5.0,47,-99.99,,,-99.99,,2013-07-27 06:22:00,
2013-07-27 00:33:00,59.0,39.0,-100.00,SW,230,3.0,5.0,47,-99.99,,,-99.99,,2013-07-27 06:33:00,
2013-07-27 00:43:00,59.0,38.0,-100.00,SW,226,2.0,3.0,46,-99.99,,,-99.99,,2013-07-27 06:43:00,
2013-07-27 00:52:00,59.0,38.0,-100.00,SW,226,2.0,3.0,46,-99.99,,,-99.99,,2013-07-27 06:52:00,
2013-07-27 01:22:00,59.0,37.0,-100.00,SW,221,2.0,3.0,44,-99.99,,,-99.99,,2013-07-27 07:22:00,
2013-07-27 01:33:00,59.0,37.0,-100.00,SW,221,2.0,3.0,44,-99.99,,,-99.99,,2013-07-27 07:33:00,
2013-07-27 01:52:00,57.0,38.0,-100.00,SSW,202,2.0,4.0,48,-99.99,,,-99.99,,2013-07-27 07:52:00,
2013-07-27 02:12:00,56.0,38.0,-100.00,SW,233,3.0,4.0,50,-99.99,,,-99.99,,2013-07-27 08:12:00,
2013-07-27 02:22:00,55.0,38.0,-100.00,WSW,239,3.0,5.0,52,-99.99,,,-99.99,,2013-07-27 08:22:00,
2013-07-27 02:32:00,55.0,38.0,-100.00,WSW,239,3.0,5.0,52,-99.99,,,-99.99,,2013-07-27 08:32:00,
2013-07-27 02:43:00,55.0,39.0,-100.00,SW,236,3.0,5.0,54,-99.99,,,-99.99,,2013-07-27 08:43:00,
2013-07-27 02:53:00,55.0,39.0,-100.00,SW,236,3.0,5.0,54,-99.99,,,-99.99,,2013-07-27 08:53:00,
2013-07-27 03:22:00,56.0,37.0,-100.00,WSW,238,5.0,9.0,47,-99.99,,,-99.99,,2013-07-27 09:22:00,
2013-07-27 03:33:00,56.0,37.0,-100.00,WSW,238,5.0,9.0,47,-99.99,,,-99.99,,2013-07-27 09:33:00,
2013-07-27 03:44:00,57.0,39.0,-100.00,WSW,239,1.0,3.0,49,-99.99,,,-99.99,,2013-07-27 09:44:00,
2013-07-27 03:52:00,57.0,39.0,-100.00,WSW,239,1.0,3.0,49,-99.99,,,-99.99,,2013-07-27 09:52:00,
2013-07-27 04:12:00,57.0,40.0,-100.00,ESE,114,2.0,4.0,53,-99.99,,,-99.99,,2013-07-27 10:12:00,
2013-07-27 04:22:00,57.0,40.0,-100.00,SSW,200,1.0,3.0,54,-99.99,,,-99.99,,2013-07-27 10:22:00,
2013-07-27 04:32:00,57.0,40.0,-100.00,SSW,200,1.0,3.0,54,-99.99,,,-99.99,,2013-07-27 10:32:00,
2013-07-27 04:43:00,56.0,41.0,-100.00,SW,220,2.0,6.0,55,-99.99,,,-99.99,,2013-07-27 10:43:00,
2013-07-27 04:52:00,56.0,41.0,-100.00,SW,220,2.0,6.0,55,-99.99,,,-99.99,,2013-07-27 10:52:00,
2013-07-27 05:22:00,57.0,40.0,-100.00,SE,134,1.0,3.0,52,-99.99,,,-99.99,,2013-07-27 11:22:00,
2013-07-27 05:32:00,57.0,40.0,-100.00,SE,134,1.0,3.0,52,-99.99,,,-99.99,,2013-07-27 11:32:00,
2013-07-27 05:53:00,58.0,40.0,-100.00,East,83,1.0,3.0,52,-99.99,,,-99.99,,2013-07-27 11:53:00,
2013-07-27 06:02:00,58.0,41.0,-100.00,WSW,244,1.0,3.0,52,-99.99,,,-99.99,,2013-07-27 12:02:00,
2013-07-27 06:12:00,58.0,41.0,-100.00,WSW,244,1.0,3.0,52,-99.99,,,-99.99,,2013-07-27 12:12:00,
2013-07-27 06:22:00,58.0,42.0,-100.00,SW,230,1.0,2.0,54,-99.99,,,-99.99,,2013-07-27 12:22:00,
2013-07-27 06:33:00,58.0,42.0,-100.00,SW,230,1.0,2.0,54,-99.99,,,-99.99,,2013-07-27 12:33:00,
2013-07-27 06:43:00,58.0,42.0,-100.00,South,177,1.0,3.0,56,-99.99,,,-99.99,,2013-07-27 12:43:00,
2013-07-27 06:52:00,58.0,42.0,-100.00,South,177,1.0,3.0,56,-99.99,,,-99.99,,2013-07-27 12:52:00,
2013-07-27 07:02:00,58.0,42.0,-100.00,SE,143,1.0,4.0,55,-99.99,,,-99.99,,2013-07-27 13:02:00,
2013-07-27 07:12:00,58.0,42.0,-100.00,SE,143,1.0,4.0,55,-99.99,,,-99.99,,2013-07-27 13:12:00,
2013-07-27 07:22:00,58.0,43.0,-100.00,SW,219,1.0,3.0,57,-99.99,,,-99.99,,2013-07-27 13:22:00,
2013-07-27 07:32:00,58.0,43.0,-100.00,SW,219,1.0,3.0,57,-99.99,,,-99.99,,2013-07-27 13:32:00,
2013-07-27 07:44:00,60.0,44.0,-100.00,SW,216,1.0,3.0,55,-99.99,,,-99.99,,2013-07-27 13:44:00,
2013-07-27 07:53:00,60.0,44.0,-100.00,SW,216,1.0,3.0,55,-99.99,,,-99.99,,2013-07-27 13:53:00,
2013-07-27 08:02:00,61.0,45.0,-100.00,SSE,160,1.0,2.0,57,-99.99,,,-99.99,,2013-07-27 14:02:00,
2013-07-27 08:12:00,61.0,45.0,-100.00,SSE,160,1.0,2.0,57,-99.99,,,-99.99,,2013-07-27 14:12:00,
2013-07-27 08:22:00,61.0,47.0,-100.00,WSW,255,1.0,3.0,61,-99.99,,,-99.99,,2013-07-27 14:22:00,
2013-07-27 08:32:00,61.0,47.0,-100.00,WSW,255,1.0,3.0,61,-99.99,,,-99.99,,2013-07-27 14:32:00,
2013-07-27 08:43:00,61.0,43.0,-100.00,NNE,33,3.0,5.0,51,-99.99,,,-99.99,,2013-07-27 14:43:00,
2013-07-27 08:54:00,61.0,43.0,-100.00,NNE,33,3.0,5.0,51,-99.99,,,-99.99,,2013-07-27 14:54:00,
2013-07-27 09:12:00,61.0,43.0,-100.00,NE,44,1.0,4.0,51,-99.99,,,-99.99,,2013-07-27 15:12:00,
2013-07-27 09:22:00,63.0,44.0,-100.00,ENE,69,1.0,3.0,49,-99.99,,,-99.99,,2013-07-27 15:22:00,
2013-07-27 09:33:00,63.0,44.0,-100.00,ENE,69,1.0,3.0,49,-99.99,,,-99.99,,2013-07-27 15:33:00,
2013-07-27 09:53:00,71.0,46.0,-100.00,West,271,7.0,13.0,40,-99.99,,,-99.99,,2013-07-27 15:53:00,
2013-07-27 10:02:00,71.0,47.0,-100.00,West,268,5.0,10.0,42,-99.99,,,-99.99,,2013-07-27 16:02:00,
2013-07-27 10:12:00,71.0,47.0,-100.00,West,268,5.0,10.0,42,-99.99,,,-99.99,,2013-07-27 16:12:00,
2013-07-27 10:22:00,71.0,48.0,-100.00,West,269,4.0,9.0,43,-99.99,,,-99.99,,2013-07-27 16:22:00,
2013-07-27 10:33:00,71.0,48.0,-100.00,West,269,4.0,9.0,43,-99.99,,,-99.99,,2013-07-27 16:33:00,
2013-07-27 10:43:00,69.0,50.0,-100.00,WNW,285,5.0,9.0,50,-99.99,,,-99.99,,2013-07-27 16:43:00,
2013-07-27 10:54:00,69.0,50.0,-100.00,WNW,285,5.0,9.0,50,-99.99,,,-99.99,,2013-07-27 16:54:00,
2013-07-27 11:02:00,68.0,53.0,-100.00,WNW,292,1.0,5.0,58,-99.99,,,-99.99,,2013-07-27 17:02:00,
2013-07-27 11:12:00,68.0,53.0,-100.00,WNW,292,1.0,5.0,58,-99.99,,,-99.99,,2013-07-27 17:12:00,
2013-07-27 11:22:00,68.0,53.0,-100.00,North,354,1.0,3.0,59,-99.99,,,-99.99,,2013-07-27 17:22:00,
2013-07-27 11:32:00,68.0,53.0,-100.00,North,354,1.0,3.0,59,-99.99,,,-99.99,,2013-07-27 17:32:00,
2013-07-27 12:02:00,71.0,51.0,-100.00,North,351,4.0,8.0,50,-99.99,,,-99.99,,2013-07-27 18:02:00,
2013-07-27 12:12:00,71.0,51.0,-100.00,North,351,4.0,8.0,50,-99.99,,,-99.99,,2013-07-27 18:12:00,
2013-07-27 12:22:00,71.0,51.0,-100.00,North,350,5.0,12.0,49,-99.99,,,-99.99,,2013-07-27 18:22:00,
2013-07-27 12:32:00,71.0,51.0,-100.00,North,350,5.0,12.0,49,-99.99,,,-99.99,,2013-07-27 18:32:00,
2013-07-27 12:42:00,70.0,52.0,-100.00,North,11,4.0,11.0,53,-99.99,,,-99.99,,2013-07-27 18:42:00,
2013-07-27 12:53:00,70.0,52.0,-100.00,North,11,4.0,11.0,53,-99.99,,,-99.99,,2013-07-27 18:53:00,
2013-07-27 13:02:00,70.0,52.0,-100.00,North,351,4.0,10.0,54,-99.99,,,-99.99,,2013-07-27 19:02:00,
2013-07-27 13:12:00,70.0,52.0,-100.00,North,351,4.0,10.0,54,-99.99,,,-99.99,,2013-07-27 19:12:00,
2013-07-27 13:22:00,69.0,52.0,-100.00,North,6,4.0,9.0,54,-99.99,,,-99.99,,2013-07-27 19:22:00,
2013-07-27 13:32:00,69.0,52.0,-100.00,North,6,4.0,9.0,54,-99.99,,,-99.99,,2013-07-27 19:32:00,
2013-07-27 13:43:00,68.0,52.0,-100.00,NNW,344,3.0,8.0,56,-99.99,,,-99.99,,2013-07-27 19:43:00,
2013-07-27 13:53:00,68.0,52.0,-100.00,NNW,344,3.0,8.0,56,-99.99,,,-99.99,,2013-07-27 19:53:00,
2013-07-27 14:02:00,68.0,52.0,-100.00,NNW,341,2.0,6.0,57,-99.99,,,-99.99,,2013-07-27 20:02:00,
2013-07-27 14:12:00,68.0,52.0,-100.00,NNW,341,2.0,6.0,57,-99.99,,,-99.99,,2013-07-27 20:12:00,
2013-07-27 14:22:00,67.0,52.0,-100.00,NW,311,3.0,7.0,58,-99.99,,,-99.99,,2013-07-27 20:22:00,
2013-07-27 14:32:00,67.0,52.0,-100.00,NW,311,3.0,7.0,58,-99.99,,,-99.99,,2013-07-27 20:32:00,
2013-07-27 14:52:00,66.0,53.0,-100.00,NNW,342,3.0,8.0,61,-99.99,,,-99.99,,2013-07-27 20:52:00,
2013-07-27 15:02:00,67.0,52.0,-100.00,North,350,3.0,7.0,59,-99.99,,,-99.99,,2013-07-27 21:02:00,
2013-07-27 15:12:00,67.0,52.0,-100.00,North,350,3.0,7.0,59,-99.99,,,-99.99,,2013-07-27 21:12:00,
2013-07-27 15:22:00,67.0,52.0,-100.00,NNW,346,3.0,9.0,57,-99.99,,,-99.99,,2013-07-27 21:22:00,
2013-07-27 15:33:00,67.0,52.0,-100.00,NNW,346,3.0,9.0,57,-99.99,,,-99.99,,2013-07-27 21:33:00,
2013-07-27 15:53:00,68.0,52.0,-100.00,NNW,330,3.0,8.0,57,-99.99,,,-99.99,,2013-07-27 21:53:00,
2013-07-27 16:02:00,68.0,51.0,-100.00,NNW,331,4.0,8.0,56,-99.99,,,-99.99,,2013-07-27 22:02:00,
2013-07-27 16:12:00,68.0,51.0,-100.00,NNW,331,4.0,8.0,56,-99.99,,,-99.99,,2013-07-27 22:12:00,
2013-07-27 16:22:00,67.0,51.0,-100.00,North,351,4.0,8.0,56,-99.99,,,-99.99,,2013-07-27 22:22:00,
2013-07-27 16:32:00,67.0,51.0,-100.00,North,351,4.0,8.0,56,-99.99,,,-99.99,,2013-07-27 22:32:00,
2013-07-27 16:53:00,67.0,52.0,-100.00,NW,319,2.0,6.0,58,-99.99,,,-99.99,,2013-07-27 22:53:00,
2013-07-27 17:02:00,67.0,51.0,-100.00,NW,321,2.0,6.0,58,-99.99,,,-99.99,,2013-07-27 23:02:00,
2013-07-27 17:12:00,67.0,51.0,-100.00,NW,321,2.0,6.0,58,-99.99,,,-99.99,,2013-07-27 23:12:00,
2013-07-27 17:22:00,67.0,51.0,-100.00,NW,315,2.0,6.0,57,-99.99,,,-99.99,,2013-07-27 23:22:00,
2013-07-27 17:32:00,67.0,51.0,-100.00,NW,315,2.0,6.0,57,-99.99,,,-99.99,,2013-07-27 23:32:00,
2013-07-27 17:53:00,68.0,52.0,-100.00,NNW,348,1.0,6.0,56,-99.99,,,-99.99,,2013-07-27 23:53:00,
2013-07-27 18:02:00,68.0,52.0,-100.00,NW,309,1.0,4.0,56,-99.99,,,-99.99,,2013-07-28 00:02:00,
2013-07-27 18:12:00,68.0,52.0,-100.00,NW,309,1.0,4.0,56,-99.99,,,-99.99,,2013-07-28 00:12:00,
2013-07-27 18:22:00,67.0,53.0,-100.00,North,2,4.0,8.0,59,-99.99,,,-99.99,,2013-07-28 00:22:00,
2013-07-27 18:32:00,67.0,53.0,-100.00,North,2,4.0,8.0,59,-99.99,,,-99.99,,2013-07-28 00:32:00,
2013-07-27 18:53:00,67.0,52.0,-100.00,NNW,342,2.0,5.0,59,-99.99,,,-99.99,,2013-07-28 00:53:00,
2013-07-27 19:02:00,67.0,53.0,-100.00,NNW,348,2.0,5.0,59,-99.99,,,-99.99,,2013-07-28 01:02:00,
2013-07-27 19:12:00,67.0,53.0,-100.00,North,352,2.0,5.0,60,-99.99,,,-99.99,,2013-07-28 01:12:00,
2013-07-27 19:22:00,67.0,53.0,-100.00,North,352,2.0,5.0,60,-99.99,,,-99.99,,2013-07-28 01:22:00,
2013-07-27 19:32:00,67.0,53.0,-100.00,North,352,2.0,5.0,60,-99.99,,,-99.99,,2013-07-28 01:32:00,
2013-07-27 19:43:00,67.0,54.0,-100.00,ESE,102,3.0,8.0,61,-99.99,,,-99.99,,2013-07-28 01:43:00,
2013-07-27 19:53:00,67.0,54.0,-100.00,ESE,102,3.0,8.0,61,-99.99,,,-99.99,,2013-07-28 01:53:00,
2013-07-27 20:02:00,68.0,54.0,-100.00,SSE,149,4.0,7.0,61,-99.99,,,-99.99,,2013-07-28 02:02:00,
2013-07-27 20:12:00,68.0,54.0,-100.00,SSE,149,4.0,7.0,61,-99.99,,,-99.99,,2013-07-28 02:12:00,
2013-07-27 20:22:00,67.0,53.0,-100.00,SSE,150,4.0,8.0,61,-99.99,,,-99.99,,2013-07-28 02:22:00,
2013-07-27 20:32:00,67.0,53.0,-100.00,SSE,150,4.0,8.0,61,-99.99,,,-99.99,,2013-07-28 02:32:00,
2013-07-27 20:53:00,66.0,54.0,-100.00,SE,126,2.0,5.0,63,-99.99,,,-99.99,,2013-07-28 02:53:00,
2013-07-27 21:02:00,66.0,53.0,-100.00,SE,146,2.0,5.0,63,-99.99,,,-99.99,,2013-07-28 03:02:00,
2013-07-27 21:12:00,66.0,53.0,-100.00,SE,146,2.0,5.0,63,-99.99,,,-99.99,,2013-07-28 03:12:00,
2013-07-27 21:22:00,65.0,53.0,-100.00,SE,137,1.0,3.0,64,-99.99,,,-99.99,,2013-07-28 03:22:00,
2013-07-27 21:32:00,65.0,53.0,-100.00,SE,137,1.0,3.0,64,-99.99,,,-99.99,,2013-07-28 03:32:00,
2013-07-27 21:53:00,62.0,53.0,-100.00,WSW,250,3.0,5.0,72,-99.99,,,-99.99,,2013-07-28 03:53:00,
2013-07-27 22:12:00,60.0,53.0,-100.00,WSW,247,4.0,6.0,75,-99.99,,,-99.99,,2013-07-28 04:12:00,
2013-07-27 22:22:00,59.0,52.0,-100.00,WSW,244,3.0,5.0,76,-99.99,,,-99.99,,2013-07-28 04:22:00,
2013-07-27 22:32:00,59.0,52.0,-100.00,WSW,244,3.0,5.0,76,-99.99,,,-99.99,,2013-07-28 04:32:00,
2013-07-27 22:43:00,59.0,52.0,-100.00,SW,220,2.0,3.0,77,-99.99,,,-99.99,,2013-07-28 04:43:00,
2013-07-27 22:53:00,59.0,52.0,-100.00,SW,220,2.0,3.0,77,-99.99,,,-99.99,,2013-07-28 04:53:00,
2013-07-27 23:02:00,59.0,52.0,-100.00,SE,128,2.0,4.0,78,-99.99,,,-99.99,,2013-07-28 05:02:00,
2013-07-27 23:12:00,60.0,52.0,-100.00,SW,220,1.0,3.0,76,-99.99,,,-99.99,,2013-07-28 05:12:00,
2013-07-27 23:22:00,60.0,52.0,-100.00,SW,220,1.0,3.0,76,-99.99,,,-99.99,,2013-07-28 05:22:00,
2013-07-27 23:32:00,60.0,52.0,-100.00,SW,220,1.0,3.0,76,-99.99,,,-99.99,,2013-07-28 05:32:00,
2013-07-27 23:43:00,58.0,51.0,-100.00,WSW,237,3.0,4.0,78,-99.99,,,-99.99,,2013-07-28 05:43:00,
2013-07-27 23:53:00,58.0,51.0,-100.00,WSW,237,3.0,4.0,78,-99.99,,,-99.99,,2013-07-28 05:53:00,